sensor_id;sensor_type;location;lat;lon;timestamp;P1;durP1;ratioP1;P2;durP2;ratioP2
21239;SDS011;10778;48.962;9.018;2023-02-10T00:00:05;41.65;;;20.50;;
21239;SDS011;10778;48.962;9.018;2023-02-10T00:02:32;40.22;;;20.15;;
21239;SDS011;10778;48.962;9.018;2023-02-10T00:04:57;41.72;;;20.95;;
21239;SDS011;10778;48.962;9.018;2023-02-10T00:07:23;44.08;;;21.00;;
21239;SDS011;10778;48.962;9.018;2023-02-10T00:09:49;44.53;;;22.08;;
21239;SDS011;10778;48.962;9.018;2023-02-10T00:12:15;46.50;;;23.17;;
21239;SDS011;10778;48.962;9.018;2023-02-10T00:14:41;44.70;;;22.35;;
21239;SDS011;10778;48.962;9.018;2023-02-10T00:17:07;42.15;;;22.30;;
21239;SDS011;10778;48.962;9.018;2023-02-10T00:19:34;46.50;;;22.98;;
21239;SDS011;10778;48.962;9.018;2023-02-10T00:22:00;46.05;;;22.20;;
21239;SDS011;10778;48.962;9.018;2023-02-10T00:24:27;42.13;;;20.63;;
21239;SDS011;10778;48.962;9.018;2023-02-10T00:26:54;44.38;;;21.33;;
21239;SDS011;10778;48.962;9.018;2023-02-10T00:29:20;42.22;;;20.50;;
21239;SDS011;10778;48.962;9.018;2023-02-10T00:31:46;39.67;;;20.83;;
21239;SDS011;10778;48.962;9.018;2023-02-10T00:34:13;45.00;;;23.25;;
21239;SDS011;10778;48.962;9.018;2023-02-10T00:36:41;44.45;;;22.00;;
21239;SDS011;10778;48.962;9.018;2023-02-10T00:39:11;47.67;;;22.30;;
21239;SDS011;10778;48.962;9.018;2023-02-10T00:41:38;40.25;;;20.55;;
21239;SDS011;10778;48.962;9.018;2023-02-10T00:47:27;41.63;;;21.65;;
21239;SDS011;10778;48.962;9.018;2023-02-10T00:49:53;44.88;;;21.90;;
21239;SDS011;10778;48.962;9.018;2023-02-10T00:52:21;41.50;;;21.20;;
21239;SDS011;10778;48.962;9.018;2023-02-10T00:54:48;45.03;;;22.08;;
21239;SDS011;10778;48.962;9.018;2023-02-10T00:57:14;40.33;;;20.48;;
21239;SDS011;10778;48.962;9.018;2023-02-10T00:59:40;48.03;;;21.98;;
21239;SDS011;10778;48.962;9.018;2023-02-10T01:02:06;42.40;;;20.52;;
21239;SDS011;10778;48.962;9.018;2023-02-10T01:04:32;38.50;;;20.20;;
21239;SDS011;10778;48.962;9.018;2023-02-10T01:06:58;43.25;;;21.20;;
21239;SDS011;10778;48.962;9.018;2023-02-10T01:09:24;41.00;;;21.30;;
21239;SDS011;10778;48.962;9.018;2023-02-10T01:11:51;43.47;;;21.75;;
21239;SDS011;10778;48.962;9.018;2023-02-10T01:14:17;45.50;;;21.88;;
21239;SDS011;10778;48.962;9.018;2023-02-10T01:16:43;40.00;;;21.05;;
21239;SDS011;10778;48.962;9.018;2023-02-10T01:19:09;41.50;;;20.50;;
21239;SDS011;10778;48.962;9.018;2023-02-10T01:21:35;47.35;;;21.90;;
21239;SDS011;10778;48.962;9.018;2023-02-10T01:24:04;44.40;;;21.98;;
21239;SDS011;10778;48.962;9.018;2023-02-10T01:26:31;45.53;;;21.85;;
21239;SDS011;10778;48.962;9.018;2023-02-10T01:28:58;46.10;;;21.63;;
21239;SDS011;10778;48.962;9.018;2023-02-10T01:31:24;45.10;;;22.45;;
21239;SDS011;10778;48.962;9.018;2023-02-10T01:33:51;43.45;;;21.67;;
21239;SDS011;10778;48.962;9.018;2023-02-10T01:36:19;46.90;;;22.42;;
21239;SDS011;10778;48.962;9.018;2023-02-10T01:38:46;42.28;;;21.73;;
21239;SDS011;10778;48.962;9.018;2023-02-10T01:41:14;44.35;;;22.15;;
21239;SDS011;10778;48.962;9.018;2023-02-10T01:46:32;39.17;;;20.60;;
21239;SDS011;10778;48.962;9.018;2023-02-10T01:49:05;42.88;;;20.90;;
21239;SDS011;10778;48.962;9.018;2023-02-10T01:52:20;43.15;;;21.05;;
21239;SDS011;10778;48.962;9.018;2023-02-10T01:54:48;43.00;;;21.13;;
21239;SDS011;10778;48.962;9.018;2023-02-10T01:57:20;42.00;;;21.15;;
21239;SDS011;10778;48.962;9.018;2023-02-10T01:59:46;43.35;;;21.38;;
21239;SDS011;10778;48.962;9.018;2023-02-10T02:02:12;45.28;;;21.92;;
21239;SDS011;10778;48.962;9.018;2023-02-10T02:04:50;45.30;;;21.40;;
21239;SDS011;10778;48.962;9.018;2023-02-10T02:07:19;44.88;;;21.98;;
21239;SDS011;10778;48.962;9.018;2023-02-10T02:09:49;41.63;;;20.83;;
21239;SDS011;10778;48.962;9.018;2023-02-10T02:15:07;45.25;;;21.45;;
21239;SDS011;10778;48.962;9.018;2023-02-10T02:34:43;42.50;;;20.80;;
21239;SDS011;10778;48.962;9.018;2023-02-10T02:37:15;43.85;;;21.23;;
21239;SDS011;10778;48.962;9.018;2023-02-10T02:40:03;42.33;;;21.23;;
21239;SDS011;10778;48.962;9.018;2023-02-10T02:42:31;47.67;;;22.30;;
21239;SDS011;10778;48.962;9.018;2023-02-10T02:45:04;48.70;;;22.95;;
21239;SDS011;10778;48.962;9.018;2023-02-10T03:01:17;51.13;;;23.13;;
21239;SDS011;10778;48.962;9.018;2023-02-10T03:03:51;50.75;;;22.35;;
21239;SDS011;10778;48.962;9.018;2023-02-10T03:06:19;53.22;;;24.40;;
21239;SDS011;10778;48.962;9.018;2023-02-10T03:08:45;49.42;;;23.73;;
21239;SDS011;10778;48.962;9.018;2023-02-10T03:11:12;46.60;;;23.00;;
21239;SDS011;10778;48.962;9.018;2023-02-10T03:13:38;45.17;;;22.63;;
21239;SDS011;10778;48.962;9.018;2023-02-10T03:16:04;46.75;;;21.65;;
21239;SDS011;10778;48.962;9.018;2023-02-10T03:18:30;43.47;;;21.27;;
21239;SDS011;10778;48.962;9.018;2023-02-10T03:20:56;47.40;;;22.10;;
21239;SDS011;10778;48.962;9.018;2023-02-10T03:23:22;41.38;;;21.08;;
21239;SDS011;10778;48.962;9.018;2023-02-10T03:25:49;42.63;;;21.13;;
21239;SDS011;10778;48.962;9.018;2023-02-10T03:28:15;44.83;;;22.15;;
21239;SDS011;10778;48.962;9.018;2023-02-10T03:30:41;44.00;;;21.38;;
21239;SDS011;10778;48.962;9.018;2023-02-10T03:33:16;41.63;;;20.60;;
21239;SDS011;10778;48.962;9.018;2023-02-10T03:35:42;43.97;;;21.30;;
21239;SDS011;10778;48.962;9.018;2023-02-10T03:38:09;46.08;;;22.13;;
21239;SDS011;10778;48.962;9.018;2023-02-10T03:40:36;45.05;;;21.00;;
21239;SDS011;10778;48.962;9.018;2023-02-10T03:43:02;41.78;;;21.17;;
21239;SDS011;10778;48.962;9.018;2023-02-10T03:45:28;47.92;;;21.35;;
21239;SDS011;10778;48.962;9.018;2023-02-10T03:47:55;47.33;;;22.15;;
21239;SDS011;10778;48.962;9.018;2023-02-10T03:50:21;42.30;;;21.17;;
21239;SDS011;10778;48.962;9.018;2023-02-10T03:52:47;42.90;;;20.45;;
21239;SDS011;10778;48.962;9.018;2023-02-10T03:55:13;36.33;;;19.27;;
21239;SDS011;10778;48.962;9.018;2023-02-10T03:57:43;40.97;;;20.55;;
21239;SDS011;10778;48.962;9.018;2023-02-10T04:00:10;41.10;;;20.38;;
21239;SDS011;10778;48.962;9.018;2023-02-10T04:02:40;40.67;;;19.80;;
21239;SDS011;10778;48.962;9.018;2023-02-10T04:05:06;43.70;;;21.25;;
21239;SDS011;10778;48.962;9.018;2023-02-10T04:07:32;38.30;;;20.17;;
21239;SDS011;10778;48.962;9.018;2023-02-10T04:09:58;39.50;;;19.60;;
21239;SDS011;10778;48.962;9.018;2023-02-10T04:12:24;42.45;;;20.67;;
21239;SDS011;10778;48.962;9.018;2023-02-10T04:14:50;43.63;;;20.63;;
21239;SDS011;10778;48.962;9.018;2023-02-10T04:17:16;44.00;;;20.70;;
21239;SDS011;10778;48.962;9.018;2023-02-10T04:19:43;42.13;;;21.02;;
21239;SDS011;10778;48.962;9.018;2023-02-10T04:22:09;45.22;;;21.55;;
21239;SDS011;10778;48.962;9.018;2023-02-10T04:24:35;42.45;;;20.83;;
21239;SDS011;10778;48.962;9.018;2023-02-10T04:27:01;45.65;;;21.95;;
21239;SDS011;10778;48.962;9.018;2023-02-10T04:29:27;46.65;;;22.15;;
21239;SDS011;10778;48.962;9.018;2023-02-10T04:31:53;42.80;;;20.83;;
21239;SDS011;10778;48.962;9.018;2023-02-10T04:34:19;46.58;;;22.27;;
21239;SDS011;10778;48.962;9.018;2023-02-10T04:36:45;42.10;;;20.98;;
21239;SDS011;10778;48.962;9.018;2023-02-10T04:39:11;46.75;;;21.40;;
21239;SDS011;10778;48.962;9.018;2023-02-10T04:41:37;44.20;;;21.10;;
21239;SDS011;10778;48.962;9.018;2023-02-10T04:44:04;44.45;;;21.20;;
21239;SDS011;10778;48.962;9.018;2023-02-10T04:46:31;43.55;;;20.92;;
21239;SDS011;10778;48.962;9.018;2023-02-10T04:48:57;43.10;;;20.45;;
21239;SDS011;10778;48.962;9.018;2023-02-10T04:51:23;45.30;;;21.35;;
21239;SDS011;10778;48.962;9.018;2023-02-10T04:53:49;39.08;;;19.55;;
21239;SDS011;10778;48.962;9.018;2023-02-10T04:56:15;39.85;;;20.08;;
21239;SDS011;10778;48.962;9.018;2023-02-10T04:58:41;39.45;;;19.35;;
21239;SDS011;10778;48.962;9.018;2023-02-10T05:01:08;41.03;;;19.67;;
21239;SDS011;10778;48.962;9.018;2023-02-10T05:03:34;44.75;;;20.30;;
21239;SDS011;10778;48.962;9.018;2023-02-10T05:06:04;42.22;;;19.42;;
21239;SDS011;10778;48.962;9.018;2023-02-10T05:08:34;41.58;;;20.00;;
21239;SDS011;10778;48.962;9.018;2023-02-10T05:11:03;42.05;;;20.65;;
21239;SDS011;10778;48.962;9.018;2023-02-10T05:13:30;44.42;;;21.05;;
21239;SDS011;10778;48.962;9.018;2023-02-10T05:15:56;44.88;;;21.50;;
21239;SDS011;10778;48.962;9.018;2023-02-10T05:18:22;43.88;;;21.05;;
21239;SDS011;10778;48.962;9.018;2023-02-10T05:20:48;43.58;;;21.65;;
21239;SDS011;10778;48.962;9.018;2023-02-10T05:23:14;40.90;;;20.60;;
21239;SDS011;10778;48.962;9.018;2023-02-10T05:25:40;43.65;;;20.17;;
21239;SDS011;10778;48.962;9.018;2023-02-10T05:28:06;43.42;;;20.38;;
21239;SDS011;10778;48.962;9.018;2023-02-10T05:30:32;41.60;;;20.33;;
21239;SDS011;10778;48.962;9.018;2023-02-10T05:32:58;46.45;;;20.45;;
21239;SDS011;10778;48.962;9.018;2023-02-10T05:35:24;44.72;;;21.27;;
21239;SDS011;10778;48.962;9.018;2023-02-10T05:37:50;42.97;;;20.15;;
21239;SDS011;10778;48.962;9.018;2023-02-10T05:40:16;45.17;;;20.17;;
21239;SDS011;10778;48.962;9.018;2023-02-10T05:42:42;42.92;;;19.70;;
21239;SDS011;10778;48.962;9.018;2023-02-10T05:45:08;42.90;;;20.23;;
21239;SDS011;10778;48.962;9.018;2023-02-10T05:47:34;45.78;;;20.27;;
21239;SDS011;10778;48.962;9.018;2023-02-10T05:50:00;51.63;;;24.92;;
21239;SDS011;10778;48.962;9.018;2023-02-10T05:52:26;55.85;;;25.45;;
21239;SDS011;10778;48.962;9.018;2023-02-10T05:54:52;50.25;;;24.85;;
21239;SDS011;10778;48.962;9.018;2023-02-10T05:57:18;45.67;;;23.42;;
21239;SDS011;10778;48.962;9.018;2023-02-10T05:59:44;42.13;;;21.23;;
21239;SDS011;10778;48.962;9.018;2023-02-10T06:02:10;44.67;;;21.23;;
21239;SDS011;10778;48.962;9.018;2023-02-10T06:04:36;39.95;;;20.40;;
21239;SDS011;10778;48.962;9.018;2023-02-10T06:07:02;37.08;;;19.05;;
21239;SDS011;10778;48.962;9.018;2023-02-10T06:09:29;38.60;;;19.20;;
21239;SDS011;10778;48.962;9.018;2023-02-10T06:11:55;38.45;;;19.65;;
21239;SDS011;10778;48.962;9.018;2023-02-10T06:14:21;39.60;;;19.30;;
21239;SDS011;10778;48.962;9.018;2023-02-10T06:16:47;38.28;;;19.45;;
21239;SDS011;10778;48.962;9.018;2023-02-10T06:19:13;37.78;;;18.75;;
21239;SDS011;10778;48.962;9.018;2023-02-10T06:21:39;34.97;;;18.75;;
21239;SDS011;10778;48.962;9.018;2023-02-10T06:24:05;35.28;;;17.73;;
21239;SDS011;10778;48.962;9.018;2023-02-10T06:26:31;36.00;;;17.98;;
21239;SDS011;10778;48.962;9.018;2023-02-10T06:28:58;38.75;;;18.42;;
21239;SDS011;10778;48.962;9.018;2023-02-10T06:31:24;36.75;;;17.95;;
21239;SDS011;10778;48.962;9.018;2023-02-10T06:33:50;38.80;;;18.48;;
21239;SDS011;10778;48.962;9.018;2023-02-10T06:36:16;38.38;;;18.85;;
21239;SDS011;10778;48.962;9.018;2023-02-10T06:38:42;37.45;;;18.42;;
21239;SDS011;10778;48.962;9.018;2023-02-10T06:41:08;40.90;;;19.58;;
21239;SDS011;10778;48.962;9.018;2023-02-10T06:43:34;37.85;;;18.95;;
21239;SDS011;10778;48.962;9.018;2023-02-10T06:46:00;36.85;;;17.98;;
21239;SDS011;10778;48.962;9.018;2023-02-10T06:48:27;37.60;;;17.48;;
21239;SDS011;10778;48.962;9.018;2023-02-10T06:50:53;38.38;;;18.85;;
21239;SDS011;10778;48.962;9.018;2023-02-10T06:53:19;39.47;;;19.45;;
21239;SDS011;10778;48.962;9.018;2023-02-10T06:55:45;42.72;;;20.38;;
21239;SDS011;10778;48.962;9.018;2023-02-10T06:58:11;44.92;;;21.52;;
21239;SDS011;10778;48.962;9.018;2023-02-10T07:00:38;45.13;;;20.60;;
21239;SDS011;10778;48.962;9.018;2023-02-10T07:03:04;42.53;;;20.77;;
21239;SDS011;10778;48.962;9.018;2023-02-10T07:05:30;40.55;;;20.10;;
21239;SDS011;10778;48.962;9.018;2023-02-10T07:07:57;38.33;;;18.85;;
21239;SDS011;10778;48.962;9.018;2023-02-10T07:10:25;42.03;;;19.27;;
21239;SDS011;10778;48.962;9.018;2023-02-10T07:12:51;40.92;;;18.98;;
21239;SDS011;10778;48.962;9.018;2023-02-10T07:15:17;42.38;;;20.35;;
21239;SDS011;10778;48.962;9.018;2023-02-10T07:17:44;41.10;;;20.95;;
21239;SDS011;10778;48.962;9.018;2023-02-10T07:20:11;46.90;;;22.35;;
21239;SDS011;10778;48.962;9.018;2023-02-10T07:22:37;42.65;;;20.45;;
21239;SDS011;10778;48.962;9.018;2023-02-10T07:25:03;44.30;;;22.33;;
21239;SDS011;10778;48.962;9.018;2023-02-10T07:27:30;43.78;;;21.65;;
21239;SDS011;10778;48.962;9.018;2023-02-10T07:29:56;50.67;;;25.10;;
21239;SDS011;10778;48.962;9.018;2023-02-10T07:32:21;45.33;;;24.35;;
21239;SDS011;10778;48.962;9.018;2023-02-10T07:34:47;46.13;;;23.98;;
21239;SDS011;10778;48.962;9.018;2023-02-10T07:37:15;44.67;;;23.80;;
21239;SDS011;10778;48.962;9.018;2023-02-10T07:39:41;41.40;;;22.33;;
21239;SDS011;10778;48.962;9.018;2023-02-10T07:42:07;43.00;;;22.45;;
21239;SDS011;10778;48.962;9.018;2023-02-10T07:44:52;46.00;;;22.60;;
21239;SDS011;10778;48.962;9.018;2023-02-10T07:47:18;42.85;;;23.17;;
21239;SDS011;10778;48.962;9.018;2023-02-10T07:49:44;44.72;;;24.20;;
21239;SDS011;10778;48.962;9.018;2023-02-10T07:52:10;46.10;;;24.25;;
21239;SDS011;10778;48.962;9.018;2023-02-10T07:54:36;43.45;;;24.60;;
21239;SDS011;10778;48.962;9.018;2023-02-10T07:57:02;43.92;;;24.42;;
21239;SDS011;10778;48.962;9.018;2023-02-10T07:59:28;47.35;;;25.70;;
21239;SDS011;10778;48.962;9.018;2023-02-10T08:01:54;47.30;;;26.67;;
21239;SDS011;10778;48.962;9.018;2023-02-10T08:04:20;43.50;;;23.08;;
21239;SDS011;10778;48.962;9.018;2023-02-10T08:06:46;43.13;;;22.85;;
21239;SDS011;10778;48.962;9.018;2023-02-10T08:09:12;40.60;;;22.98;;
21239;SDS011;10778;48.962;9.018;2023-02-10T08:11:41;41.47;;;22.58;;
21239;SDS011;10778;48.962;9.018;2023-02-10T08:14:07;43.33;;;22.70;;
21239;SDS011;10778;48.962;9.018;2023-02-10T08:16:33;39.50;;;22.30;;
21239;SDS011;10778;48.962;9.018;2023-02-10T08:18:59;39.55;;;22.80;;
21239;SDS011;10778;48.962;9.018;2023-02-10T08:21:25;37.95;;;22.63;;
21239;SDS011;10778;48.962;9.018;2023-02-10T08:23:52;37.35;;;22.52;;
21239;SDS011;10778;48.962;9.018;2023-02-10T08:26:20;41.28;;;23.60;;
21239;SDS011;10778;48.962;9.018;2023-02-10T08:28:48;42.50;;;24.17;;
21239;SDS011;10778;48.962;9.018;2023-02-10T08:31:14;55.20;;;31.48;;
21239;SDS011;10778;48.962;9.018;2023-02-10T08:33:41;48.33;;;28.80;;
21239;SDS011;10778;48.962;9.018;2023-02-10T08:36:09;41.53;;;25.52;;
21239;SDS011;10778;48.962;9.018;2023-02-10T08:38:37;44.13;;;25.52;;
21239;SDS011;10778;48.962;9.018;2023-02-10T08:41:04;43.28;;;23.90;;
21239;SDS011;10778;48.962;9.018;2023-02-10T08:43:31;38.90;;;24.88;;
21239;SDS011;10778;48.962;9.018;2023-02-10T08:45:57;40.80;;;24.35;;
21239;SDS011;10778;48.962;9.018;2023-02-10T08:48:25;40.78;;;23.92;;
21239;SDS011;10778;48.962;9.018;2023-02-10T08:50:52;42.65;;;25.67;;
21239;SDS011;10778;48.962;9.018;2023-02-10T08:53:19;45.50;;;24.90;;
21239;SDS011;10778;48.962;9.018;2023-02-10T08:55:54;42.30;;;25.33;;
21239;SDS011;10778;48.962;9.018;2023-02-10T08:58:24;42.00;;;24.58;;
21239;SDS011;10778;48.962;9.018;2023-02-10T09:00:50;42.00;;;24.75;;
21239;SDS011;10778;48.962;9.018;2023-02-10T09:03:17;40.15;;;24.83;;
21239;SDS011;10778;48.962;9.018;2023-02-10T09:05:43;40.38;;;23.83;;
21239;SDS011;10778;48.962;9.018;2023-02-10T09:08:14;41.97;;;24.00;;
21239;SDS011;10778;48.962;9.018;2023-02-10T09:10:42;40.20;;;24.98;;
21239;SDS011;10778;48.962;9.018;2023-02-10T09:13:09;37.78;;;23.73;;
21239;SDS011;10778;48.962;9.018;2023-02-10T09:15:39;37.42;;;23.20;;
21239;SDS011;10778;48.962;9.018;2023-02-10T09:18:06;38.08;;;23.73;;
21239;SDS011;10778;48.962;9.018;2023-02-10T09:20:34;39.88;;;24.38;;
21239;SDS011;10778;48.962;9.018;2023-02-10T09:23:01;38.30;;;23.88;;
21239;SDS011;10778;48.962;9.018;2023-02-10T09:25:27;43.35;;;24.35;;
21239;SDS011;10778;48.962;9.018;2023-02-10T09:27:53;44.38;;;27.77;;
21239;SDS011;10778;48.962;9.018;2023-02-10T09:30:23;34.90;;;23.60;;
21239;SDS011;10778;48.962;9.018;2023-02-10T09:32:50;36.33;;;23.65;;
21239;SDS011;10778;48.962;9.018;2023-02-10T09:35:16;37.15;;;23.83;;
21239;SDS011;10778;48.962;9.018;2023-02-10T09:37:42;38.15;;;24.15;;
21239;SDS011;10778;48.962;9.018;2023-02-10T09:40:20;39.65;;;24.20;;
21239;SDS011;10778;48.962;9.018;2023-02-10T09:45:57;38.45;;;24.20;;
21239;SDS011;10778;48.962;9.018;2023-02-10T09:48:35;36.13;;;23.75;;
21239;SDS011;10778;48.962;9.018;2023-02-10T09:51:47;40.25;;;25.55;;
21239;SDS011;10778;48.962;9.018;2023-02-10T09:54:16;40.92;;;25.85;;
21239;SDS011;10778;48.962;9.018;2023-02-10T09:56:43;38.50;;;25.50;;
21239;SDS011;10778;48.962;9.018;2023-02-10T09:59:13;36.42;;;24.10;;
21239;SDS011;10778;48.962;9.018;2023-02-10T10:01:43;38.17;;;25.55;;
21239;SDS011;10778;48.962;9.018;2023-02-10T10:04:18;38.10;;;24.75;;
21239;SDS011;10778;48.962;9.018;2023-02-10T10:06:51;39.30;;;24.58;;
21239;SDS011;10778;48.962;9.018;2023-02-10T10:12:00;40.13;;;25.17;;
21239;SDS011;10778;48.962;9.018;2023-02-10T10:14:27;40.63;;;25.63;;
21239;SDS011;10778;48.962;9.018;2023-02-10T10:30:16;41.08;;;25.83;;
21239;SDS011;10778;48.962;9.018;2023-02-10T10:32:47;39.92;;;26.42;;
21239;SDS011;10778;48.962;9.018;2023-02-10T10:35:20;40.63;;;25.95;;
21239;SDS011;10778;48.962;9.018;2023-02-10T10:37:51;43.45;;;26.10;;
21239;SDS011;10778;48.962;9.018;2023-02-10T10:40:19;43.08;;;27.50;;
21239;SDS011;10778;48.962;9.018;2023-02-10T10:42:50;40.17;;;26.00;;
21239;SDS011;10778;48.962;9.018;2023-02-10T10:45:25;41.22;;;24.95;;
21239;SDS011;10778;48.962;9.018;2023-02-10T10:48:06;43.72;;;25.35;;
21239;SDS011;10778;48.962;9.018;2023-02-10T10:50:35;39.85;;;26.25;;
21239;SDS011;10778;48.962;9.018;2023-02-10T10:53:03;39.75;;;24.98;;
21239;SDS011;10778;48.962;9.018;2023-02-10T10:55:51;37.03;;;23.08;;
21239;SDS011;10778;48.962;9.018;2023-02-10T10:58:23;36.00;;;22.38;;
21239;SDS011;10778;48.962;9.018;2023-02-10T11:00:52;35.83;;;23.30;;
21239;SDS011;10778;48.962;9.018;2023-02-10T11:03:20;35.20;;;22.48;;
21239;SDS011;10778;48.962;9.018;2023-02-10T11:08:23;36.42;;;22.35;;
21239;SDS011;10778;48.962;9.018;2023-02-10T11:10:56;34.92;;;22.13;;
21239;SDS011;10778;48.962;9.018;2023-02-10T11:13:26;35.47;;;22.50;;
21239;SDS011;10778;48.962;9.018;2023-02-10T11:16:02;37.30;;;23.50;;
21239;SDS011;10778;48.962;9.018;2023-02-10T11:18:30;39.08;;;23.02;;
21239;SDS011;10778;48.962;9.018;2023-02-10T11:21:01;37.28;;;23.73;;
21239;SDS011;10778;48.962;9.018;2023-02-10T11:23:34;35.60;;;22.45;;
21239;SDS011;10778;48.962;9.018;2023-02-10T11:26:03;36.35;;;23.20;;
21239;SDS011;10778;48.962;9.018;2023-02-10T11:28:34;35.83;;;24.27;;
21239;SDS011;10778;48.962;9.018;2023-02-10T11:31:04;38.67;;;24.08;;
21239;SDS011;10778;48.962;9.018;2023-02-10T11:33:41;37.25;;;23.40;;
21239;SDS011;10778;48.962;9.018;2023-02-10T11:36:08;37.97;;;23.23;;
21239;SDS011;10778;48.962;9.018;2023-02-10T11:38:37;39.70;;;24.38;;
21239;SDS011;10778;48.962;9.018;2023-02-10T11:41:10;40.65;;;24.27;;
21239;SDS011;10778;48.962;9.018;2023-02-10T11:43:46;42.17;;;24.48;;
21239;SDS011;10778;48.962;9.018;2023-02-10T11:46:20;33.45;;;23.50;;
21239;SDS011;10778;48.962;9.018;2023-02-10T11:51:20;40.60;;;23.60;;
21239;SDS011;10778;48.962;9.018;2023-02-10T11:53:48;38.30;;;23.40;;
21239;SDS011;10778;48.962;9.018;2023-02-10T11:56:20;38.72;;;24.23;;
21239;SDS011;10778;48.962;9.018;2023-02-10T11:59:14;38.28;;;23.60;;
21239;SDS011;10778;48.962;9.018;2023-02-10T12:04:54;37.38;;;23.50;;
21239;SDS011;10778;48.962;9.018;2023-02-10T12:07:29;37.97;;;23.98;;
21239;SDS011;10778;48.962;9.018;2023-02-10T12:10:14;37.53;;;24.17;;
21239;SDS011;10778;48.962;9.018;2023-02-10T12:20:56;39.42;;;23.60;;
21239;SDS011;10778;48.962;9.018;2023-02-10T12:34:57;40.25;;;24.38;;
21239;SDS011;10778;48.962;9.018;2023-02-10T12:37:40;41.10;;;24.25;;
21239;SDS011;10778;48.962;9.018;2023-02-10T12:43:06;35.92;;;24.10;;
21239;SDS011;10778;48.962;9.018;2023-02-10T12:45:51;36.90;;;23.83;;
21239;SDS011;10778;48.962;9.018;2023-02-10T12:48:30;38.33;;;24.75;;
21239;SDS011;10778;48.962;9.018;2023-02-10T12:53:42;39.63;;;25.83;;
21239;SDS011;10778;48.962;9.018;2023-02-10T13:01:51;37.20;;;25.02;;
21239;SDS011;10778;48.962;9.018;2023-02-10T13:04:29;37.90;;;24.67;;
21239;SDS011;10778;48.962;9.018;2023-02-10T13:07:02;36.90;;;24.70;;
21239;SDS011;10778;48.962;9.018;2023-02-10T13:12:22;38.78;;;24.55;;
21239;SDS011;10778;48.962;9.018;2023-02-10T13:14:57;37.10;;;25.40;;
21239;SDS011;10778;48.962;9.018;2023-02-10T13:17:38;56.22;;;26.65;;
21239;SDS011;10778;48.962;9.018;2023-02-10T13:20:15;38.67;;;24.67;;
21239;SDS011;10778;48.962;9.018;2023-02-10T13:22:52;39.83;;;25.23;;
21239;SDS011;10778;48.962;9.018;2023-02-10T13:25:23;37.00;;;23.75;;
21239;SDS011;10778;48.962;9.018;2023-02-10T13:36:04;35.47;;;23.55;;
21239;SDS011;10778;48.962;9.018;2023-02-10T13:38:38;34.83;;;23.05;;
21239;SDS011;10778;48.962;9.018;2023-02-10T13:41:04;35.33;;;23.23;;
21239;SDS011;10778;48.962;9.018;2023-02-10T13:43:54;32.67;;;23.23;;
21239;SDS011;10778;48.962;9.018;2023-02-10T13:46:25;34.00;;;21.80;;
21239;SDS011;10778;48.962;9.018;2023-02-10T13:48:55;40.95;;;23.52;;
21239;SDS011;10778;48.962;9.018;2023-02-10T13:51:34;32.63;;;21.20;;
21239;SDS011;10778;48.962;9.018;2023-02-10T13:54:02;30.60;;;20.42;;
21239;SDS011;10778;48.962;9.018;2023-02-10T13:56:30;32.53;;;21.40;;
21239;SDS011;10778;48.962;9.018;2023-02-10T13:59:02;33.83;;;21.98;;
21239;SDS011;10778;48.962;9.018;2023-02-10T14:01:34;30.17;;;20.17;;
21239;SDS011;10778;48.962;9.018;2023-02-10T14:04:03;29.13;;;20.15;;
21239;SDS011;10778;48.962;9.018;2023-02-10T14:06:38;29.33;;;19.38;;
21239;SDS011;10778;48.962;9.018;2023-02-10T14:15:55;30.83;;;19.50;;
21239;SDS011;10778;48.962;9.018;2023-02-10T14:18:33;32.00;;;20.23;;
21239;SDS011;10778;48.962;9.018;2023-02-10T14:21:11;29.52;;;19.83;;
21239;SDS011;10778;48.962;9.018;2023-02-10T14:23:40;36.97;;;21.00;;
21239;SDS011;10778;48.962;9.018;2023-02-10T14:26:14;30.05;;;19.70;;
21239;SDS011;10778;48.962;9.018;2023-02-10T14:28:46;29.95;;;19.90;;
21239;SDS011;10778;48.962;9.018;2023-02-10T14:31:33;30.00;;;20.27;;
21239;SDS011;10778;48.962;9.018;2023-02-10T14:34:05;29.45;;;19.52;;
21239;SDS011;10778;48.962;9.018;2023-02-10T14:36:56;30.10;;;19.58;;
21239;SDS011;10778;48.962;9.018;2023-02-10T14:39:39;31.15;;;20.08;;
21239;SDS011;10778;48.962;9.018;2023-02-10T14:42:06;31.55;;;20.23;;
21239;SDS011;10778;48.962;9.018;2023-02-10T14:49:43;28.67;;;19.55;;
21239;SDS011;10778;48.962;9.018;2023-02-10T14:54:58;32.90;;;20.48;;
21239;SDS011;10778;48.962;9.018;2023-02-10T14:57:25;30.95;;;20.88;;
21239;SDS011;10778;48.962;9.018;2023-02-10T14:59:53;32.13;;;20.40;;
21239;SDS011;10778;48.962;9.018;2023-02-10T15:02:22;29.80;;;20.35;;
21239;SDS011;10778;48.962;9.018;2023-02-10T15:04:51;32.83;;;20.70;;
21239;SDS011;10778;48.962;9.018;2023-02-10T15:07:21;30.30;;;18.67;;
21239;SDS011;10778;48.962;9.018;2023-02-10T15:09:52;30.02;;;19.52;;
21239;SDS011;10778;48.962;9.018;2023-02-10T15:12:20;30.60;;;18.35;;
21239;SDS011;10778;48.962;9.018;2023-02-10T15:17:31;28.17;;;18.50;;
21239;SDS011;10778;48.962;9.018;2023-02-10T15:28:20;27.80;;;17.65;;
21239;SDS011;10778;48.962;9.018;2023-02-10T15:38:45;28.02;;;15.60;;
21239;SDS011;10778;48.962;9.018;2023-02-10T15:44:28;25.77;;;15.35;;
21239;SDS011;10778;48.962;9.018;2023-02-10T15:49:46;29.33;;;18.58;;
21239;SDS011;10778;48.962;9.018;2023-02-10T15:52:18;31.67;;;19.20;;
21239;SDS011;10778;48.962;9.018;2023-02-10T15:54:46;33.33;;;19.17;;
21239;SDS011;10778;48.962;9.018;2023-02-10T15:57:15;32.25;;;19.95;;
21239;SDS011;10778;48.962;9.018;2023-02-10T15:59:42;39.45;;;20.95;;
21239;SDS011;10778;48.962;9.018;2023-02-10T16:02:10;34.83;;;19.30;;
21239;SDS011;10778;48.962;9.018;2023-02-10T16:04:39;40.47;;;21.38;;
21239;SDS011;10778;48.962;9.018;2023-02-10T16:07:05;36.70;;;21.70;;
21239;SDS011;10778;48.962;9.018;2023-02-10T16:09:32;37.85;;;21.33;;
21239;SDS011;10778;48.962;9.018;2023-02-10T16:11:59;37.15;;;21.08;;
21239;SDS011;10778;48.962;9.018;2023-02-10T16:14:26;34.95;;;19.98;;
21239;SDS011;10778;48.962;9.018;2023-02-10T16:16:54;36.05;;;19.67;;
21239;SDS011;10778;48.962;9.018;2023-02-10T16:19:23;40.80;;;21.40;;
21239;SDS011;10778;48.962;9.018;2023-02-10T16:21:50;43.33;;;22.13;;
21239;SDS011;10778;48.962;9.018;2023-02-10T16:24:22;40.28;;;23.13;;
21239;SDS011;10778;48.962;9.018;2023-02-10T16:26:51;41.00;;;22.42;;
21239;SDS011;10778;48.962;9.018;2023-02-10T16:29:18;41.50;;;21.25;;
21239;SDS011;10778;48.962;9.018;2023-02-10T16:31:55;36.50;;;21.38;;
21239;SDS011;10778;48.962;9.018;2023-02-10T16:34:21;43.65;;;24.02;;
21239;SDS011;10778;48.962;9.018;2023-02-10T16:36:48;43.08;;;23.80;;
21239;SDS011;10778;48.962;9.018;2023-02-10T16:39:15;38.65;;;21.05;;
21239;SDS011;10778;48.962;9.018;2023-02-10T16:41:46;31.63;;;19.02;;
21239;SDS011;10778;48.962;9.018;2023-02-10T16:44:13;32.13;;;18.80;;
21239;SDS011;10778;48.962;9.018;2023-02-10T16:46:39;32.45;;;19.48;;
21239;SDS011;10778;48.962;9.018;2023-02-10T16:49:05;39.58;;;21.25;;
21239;SDS011;10778;48.962;9.018;2023-02-10T16:51:33;47.25;;;23.30;;
21239;SDS011;10778;48.962;9.018;2023-02-10T16:54:00;43.40;;;22.20;;
21239;SDS011;10778;48.962;9.018;2023-02-10T16:56:26;47.33;;;23.30;;
21239;SDS011;10778;48.962;9.018;2023-02-10T16:58:53;38.50;;;22.52;;